CDT,Max TemperatureF,Mean TemperatureF,Min TemperatureF,Max Dew PointF,MeanDew PointF,Min DewpointF,Max Humidity, Mean Humidity, Min Humidity, Max Sea Level PressureIn, Mean Sea Level PressureIn, Min Sea Level PressureIn, Max VisibilityMiles, Mean VisibilityMiles, Min VisibilityMiles, Max Wind SpeedMPH, Mean Wind SpeedMPH, Max Gust SpeedMPH,PrecipitationIn, CloudCover, Events, WindDirDegrees
2013-8-1,80,65,50,62,56,50,99,73,47,30.08,30.00,29.90,10,10,10,8,2,,0.00,2,,249
2013-8-2,75,64,53,59,55,51,97,73,43,30.07,29.98,29.90,10,10,7,12,4,17,0.00,0,,318
2013-8-3,77,64,50,58,53,50,97,68,39,30.23,30.16,30.08,10,10,10,10,2,18,0.00,1,,328
2013-8-4,73,61,49,60,56,48,95,80,56,30.26,30.17,30.00,10,10,7,7,2,,0.00,3,,111
2013-8-5,79,69,59,67,63,57,100,85,61,30.03,29.90,29.83,10,9,2,14,5,16,1.62,5,Rain,238
2013-8-6,83,68,54,70,62,54,100,85,58,29.88,29.81,29.72,10,8,0,24,3,33,0.07,1,Fog-Rain,224
2013-8-7,73,64,56,61,57,52,99,77,49,30.05,29.97,29.83,10,10,10,10,5,21,0.00,1,,335
2013-8-8,70,62,53,63,58,53,100,89,67,30.08,30.04,30.01,10,9,1,7,1,,0.08,4,Rain,213
2013-8-9,73,63,53,61,56,52,100,76,49,30.15,30.09,30.03,10,8,0,16,4,22,0.00,3,Fog,296
2013-8-10,74,64,53,62,57,52,99,76,52,30.22,30.17,30.10,10,10,10,6,1,,0.00,3,,308
2013-8-11,79,70,61,66,63,59,99,82,62,30.11,30.06,30.02,10,10,7,7,2,,0.00,5,,90
2013-8-12,77,66,54,62,58,54,100,76,47,30.10,30.07,30.05,10,10,10,13,4,18,0.00,1,,315
2013-8-13,73,63,53,58,54,50,99,74,44,30.22,30.18,30.10,10,10,5,9,4,,0.00,1,,20
2013-8-14,75,61,47,57,52,47,99,74,41,30.22,30.18,30.13,10,10,10,7,1,,0.00,1,,228
2013-8-15,76,64,53,63,57,52,99,79,53,30.16,30.13,30.11,10,9,5,7,1,,0.00,3,,224
2013-8-16,77,63,49,61,56,49,99,78,50,30.22,30.19,30.16,10,9,1,10,2,,0.00,1,,194
2013-8-17,79,64,50,61,56,50,100,75,51,30.20,30.17,30.12,10,10,5,13,3,20,0.00,1,,168
2013-8-18,80,66,52,62,58,51,97,72,49,30.14,30.09,30.02,10,10,10,15,4,21,0.00,1,,175
2013-8-19,85,74,65,72,66,60,86,75,63,30.05,29.96,29.90,10,10,10,12,4,16,0.00,3,,175
2013-8-20,86,76,68,75,71,67,96,84,69,29.92,29.90,29.87,10,9,5,10,4,16,0.00,2,,158
2013-8-21,88,78,68,77,72,60,99,83,60,30.04,29.92,29.85,10,8,3,9,4,,0.00,2,,331
2013-8-22,82,70,59,66,56,51,96,59,37,30.15,30.11,30.03,10,10,7,17,8,25,0.00,1,,48
2013-8-23,83,69,55,71,63,53,94,79,63,30.16,30.10,30.04,10,10,10,12,4,17,0.00,1,,118
2013-8-24,86,78,69,74,71,68,95,80,60,30.05,30.00,29.93,10,10,10,16,8,26,0.00,1,,156
2013-8-25,92,84,75,77,74,71,90,75,59,30.01,29.98,29.95,10,10,10,14,8,20,0.00,0,,193
2013-8-26,91,81,71,80,75,71,98,80,61,30.00,29.94,29.85,10,9,4,12,4,16,0.00,0,,181
2013-8-27,91,81,71,80,75,71,99,83,68,29.95,29.86,29.82,10,9,2,7,3,,0.00,1,,53
2013-8-28,87,77,67,76,73,68,99,84,67,30.03,29.99,29.94,10,9,1,10,5,,0.00,1,,84
2013-8-29,91,82,74,76,73,70,100,79,51,30.01,29.95,29.87,10,8,0,9,5,18,0.00,2,Fog,165
2013-8-30,82,72,63,73,68,62,96,79,59,29.97,29.92,29.87,10,10,10,14,5,20,0.00,2,,18
2013-8-31,86,72,57,72,65,57,100,82,52,29.91,29.85,29.76,10,9,1,15,3,31,0.03,1,Rain,160